sensor_id;sensor_type;location;lat;lon;timestamp;temperature;humidity
2993;DHT22;1506;48.932;9.478;2022-12-17T00:01:34;-6.40;99.90
2993;DHT22;1506;48.932;9.478;2022-12-17T00:04:23;-6.60;99.90
2993;DHT22;1506;48.932;9.478;2022-12-17T00:07:09;-6.50;99.90
2993;DHT22;1506;48.932;9.478;2022-12-17T00:09:56;-6.60;99.90
2993;DHT22;1506;48.932;9.478;2022-12-17T00:12:42;-6.70;99.90
2993;DHT22;1506;48.932;9.478;2022-12-17T00:21:00;-6.90;99.90
2993;DHT22;1506;48.932;9.478;2022-12-17T00:26:32;-6.80;99.90
2993;DHT22;1506;48.932;9.478;2022-12-17T00:40:22;-7.00;99.90
2993;DHT22;1506;48.932;9.478;2022-12-17T00:43:10;-7.00;99.90
2993;DHT22;1506;48.932;9.478;2022-12-17T00:45:57;-7.00;99.90
2993;DHT22;1506;48.932;9.478;2022-12-17T00:51:29;-7.20;79.40
2993;DHT22;1506;48.932;9.478;2022-12-17T00:54:15;-7.30;55.80
2993;DHT22;1506;48.932;9.478;2022-12-17T00:57:01;-7.40;66.00
2993;DHT22;1506;48.932;9.478;2022-12-17T00:59:47;-7.50;88.60
2993;DHT22;1506;48.932;9.478;2022-12-17T01:02:32;-7.50;91.30
2993;DHT22;1506;48.932;9.478;2022-12-17T01:05:19;-7.40;90.90
2993;DHT22;1506;48.932;9.478;2022-12-17T01:11:06;-7.70;76.90
2993;DHT22;1506;48.932;9.478;2022-12-17T01:13:52;-7.80;73.80
2993;DHT22;1506;48.932;9.478;2022-12-17T01:16:39;-7.60;79.10
2993;DHT22;1506;48.932;9.478;2022-12-17T01:19:25;-7.70;88.60
2993;DHT22;1506;48.932;9.478;2022-12-17T01:22:10;-7.60;76.80
2993;DHT22;1506;48.932;9.478;2022-12-17T01:24:55;-7.70;43.90
2993;DHT22;1506;48.932;9.478;2022-12-17T01:27:41;-7.50;48.00
2993;DHT22;1506;48.932;9.478;2022-12-17T01:30:30;-7.50;45.70
2993;DHT22;1506;48.932;9.478;2022-12-17T01:33:15;-7.20;90.20
2993;DHT22;1506;48.932;9.478;2022-12-17T01:36:01;-7.00;81.10
2993;DHT22;1506;48.932;9.478;2022-12-17T01:38:47;-6.90;54.00
2993;DHT22;1506;48.932;9.478;2022-12-17T01:41:33;-6.80;45.50
2993;DHT22;1506;48.932;9.478;2022-12-17T01:47:30;-6.70;20.10
2993;DHT22;1506;48.932;9.478;2022-12-17T01:50:25;-6.70;14.80
2993;DHT22;1506;48.932;9.478;2022-12-17T01:53:14;-6.70;1.00
2993;DHT22;1506;48.932;9.478;2022-12-17T01:56:02;-7.00;1.00
2993;DHT22;1506;48.932;9.478;2022-12-17T01:58:48;-7.10;1.00
2993;DHT22;1506;48.932;9.478;2022-12-17T02:01:34;-7.10;1.00
2993;DHT22;1506;48.932;9.478;2022-12-17T02:04:21;-7.00;1.00
2993;DHT22;1506;48.932;9.478;2022-12-17T02:10:16;-6.80;11.80
2993;DHT22;1506;48.932;9.478;2022-12-17T02:16:14;-6.70;22.90
2993;DHT22;1506;48.932;9.478;2022-12-17T02:28:40;-6.90;39.90
2993;DHT22;1506;48.932;9.478;2022-12-17T02:31:29;-7.00;69.30
2993;DHT22;1506;48.932;9.478;2022-12-17T02:34:15;-7.10;60.80
2993;DHT22;1506;48.932;9.478;2022-12-17T02:37:01;-7.00;59.60
2993;DHT22;1506;48.932;9.478;2022-12-17T02:39:46;-6.90;56.10
2993;DHT22;1506;48.932;9.478;2022-12-17T02:42:33;-6.70;53.70
2993;DHT22;1506;48.932;9.478;2022-12-17T02:45:19;-6.60;53.50
2993;DHT22;1506;48.932;9.478;2022-12-17T16:36:15;-5.40;1.00
2993;DHT22;1506;48.932;9.478;2022-12-17T16:38:51;-5.40;1.00
2993;DHT22;1506;48.932;9.478;2022-12-17T21:08:47;-9.90;1.00
2993;DHT22;1506;48.932;9.478;2022-12-17T21:11:21;-10.10;1.00
2993;DHT22;1506;48.932;9.478;2022-12-17T21:13:50;-10.20;1.00
2993;DHT22;1506;48.932;9.478;2022-12-17T21:16:21;-10.30;1.00
2993;DHT22;1506;48.932;9.478;2022-12-17T21:21:24;-9.30;1.00
2993;DHT22;1506;48.932;9.478;2022-12-17T21:26:27;-9.70;1.00
2993;DHT22;1506;48.932;9.478;2022-12-17T21:28:55;-9.70;1.00
2993;DHT22;1506;48.932;9.478;2022-12-17T21:31:29;-9.70;1.00
2993;DHT22;1506;48.932;9.478;2022-12-17T21:34:00;-9.90;1.00
